createdAt,value
2017-12-21T00:01:01.514Z,1.70
2017-12-21T00:03:29.326Z,1.70
2017-12-21T00:05:57.118Z,1.80
2017-12-21T00:08:24.896Z,1.80
2017-12-21T00:10:52.760Z,1.80
2017-12-21T00:13:20.570Z,1.80
2017-12-21T00:15:48.391Z,1.80
2017-12-21T00:18:16.208Z,1.80
2017-12-21T00:20:44.759Z,1.80
2017-12-21T00:23:12.549Z,1.80
2017-12-21T00:25:41.128Z,1.70
2017-12-21T00:28:08.875Z,1.70
2017-12-21T00:30:36.642Z,1.70
2017-12-21T00:33:04.455Z,1.70
2017-12-21T00:35:32.211Z,1.80
2017-12-21T00:37:59.982Z,1.90
2017-12-21T00:40:27.849Z,1.90
2017-12-21T00:42:55.611Z,1.90
2017-12-21T00:45:24.147Z,1.90
2017-12-21T00:47:52.732Z,2.00
2017-12-21T00:50:21.263Z,1.90
2017-12-21T00:52:49.024Z,1.90
2017-12-21T00:55:16.855Z,1.90
2017-12-21T00:57:44.618Z,1.90
2017-12-21T01:00:13.256Z,1.90
2017-12-21T01:02:41.078Z,2.00
2017-12-21T01:05:08.840Z,2.00
2017-12-21T01:07:36.602Z,2.00
2017-12-21T01:10:04.408Z,2.00
2017-12-21T01:12:33.148Z,2.00
2017-12-21T01:15:00.918Z,2.00
2017-12-21T01:17:28.730Z,2.00
2017-12-21T01:19:56.499Z,2.00
2017-12-21T01:22:25.020Z,2.00
2017-12-21T01:24:52.847Z,2.00
2017-12-21T01:27:21.378Z,2.00
2017-12-21T01:29:49.139Z,1.90
2017-12-21T01:32:16.950Z,1.90
2017-12-21T01:34:45.484Z,1.90
2017-12-21T01:37:13.246Z,1.90
2017-12-21T01:39:41.063Z,1.90
2017-12-21T01:42:08.880Z,1.80
2017-12-21T01:44:36.687Z,1.70
2017-12-21T01:47:04.540Z,1.80
2017-12-21T01:49:33.087Z,1.80
2017-12-21T01:52:00.889Z,1.80
2017-12-21T01:54:29.486Z,1.70
2017-12-21T01:56:57.254Z,1.70
2017-12-21T01:59:25.015Z,1.70
2017-12-21T02:01:52.887Z,1.80
2017-12-21T02:04:20.651Z,1.80
2017-12-21T02:06:48.406Z,1.70
2017-12-21T02:09:16.232Z,1.70
2017-12-21T02:11:44.750Z,1.80
2017-12-21T02:14:12.507Z,1.80
2017-12-21T02:16:40.314Z,1.80
2017-12-21T02:19:08.102Z,1.80
2017-12-21T02:21:36.670Z,1.70
2017-12-21T02:24:04.516Z,1.80
2017-12-21T02:26:32.292Z,1.70
2017-12-21T02:29:00.083Z,1.80
2017-12-21T02:31:28.699Z,1.60
2017-12-21T02:33:56.500Z,1.60
2017-12-21T02:36:24.294Z,1.60
2017-12-21T02:38:52.142Z,1.50
2017-12-21T02:41:20.710Z,1.40
2017-12-21T02:43:49.279Z,1.50
2017-12-21T02:46:17.121Z,1.50
2017-12-21T02:48:44.900Z,1.50
2017-12-21T02:51:12.702Z,1.60
2017-12-21T02:53:41.325Z,1.60
2017-12-21T02:56:09.107Z,1.60
2017-12-21T02:58:36.906Z,1.60
2017-12-21T03:01:05.511Z,1.60
2017-12-21T03:03:33.308Z,1.50
2017-12-21T03:06:01.086Z,1.60
2017-12-21T03:08:28.930Z,1.60
2017-12-21T03:10:56.708Z,1.60
2017-12-21T03:13:24.505Z,1.60
2017-12-21T03:15:53.117Z,1.80
2017-12-21T03:18:20.867Z,1.80
2017-12-21T03:20:48.662Z,1.80
2017-12-21T03:23:16.495Z,1.90
2017-12-21T03:25:44.258Z,1.90
2017-12-21T03:28:12.022Z,2.00
2017-12-21T03:30:39.885Z,1.90
2017-12-21T03:33:07.662Z,1.90
2017-12-21T03:35:35.439Z,2.00
2017-12-21T03:38:03.251Z,1.90
2017-12-21T03:40:31.074Z,1.90
2017-12-21T03:42:58.838Z,1.90
2017-12-21T03:45:26.664Z,1.90
2017-12-21T03:47:54.436Z,2.00
2017-12-21T03:50:22.214Z,1.90
2017-12-21T03:52:50.191Z,1.90
2017-12-21T03:55:17.991Z,1.90
2017-12-21T03:57:45.767Z,1.90
2017-12-21T04:00:13.602Z,2.00
2017-12-21T04:02:42.127Z,2.00
2017-12-21T04:05:09.896Z,2.00
2017-12-21T04:07:37.726Z,2.00
2017-12-21T04:10:05.496Z,2.00
2017-12-21T04:12:33.247Z,2.10
2017-12-21T04:15:01.064Z,2.10
2017-12-21T04:17:28.817Z,2.10
2017-12-21T04:19:56.587Z,2.10
2017-12-21T04:22:24.394Z,2.00
2017-12-21T04:24:52.159Z,2.10
2017-12-21T04:27:19.913Z,2.10
2017-12-21T04:29:48.488Z,2.10
2017-12-21T04:32:17.020Z,2.10
2017-12-21T04:34:44.772Z,2.10
2017-12-21T04:37:12.582Z,2.10
2017-12-21T04:39:41.123Z,2.30
2017-12-21T04:42:08.942Z,2.30
2017-12-21T04:44:37.549Z,2.40
2017-12-21T04:47:05.327Z,2.40
2017-12-21T04:49:33.083Z,2.50
2017-12-21T04:52:00.895Z,2.50
2017-12-21T04:54:29.419Z,2.50
2017-12-21T04:56:57.177Z,2.50
2017-12-21T04:59:25.777Z,2.40
2017-12-21T05:01:53.543Z,2.40
2017-12-21T05:04:21.315Z,2.40
2017-12-21T05:06:49.134Z,2.40
2017-12-21T05:09:16.903Z,2.30
2017-12-21T05:11:44.725Z,2.20
2017-12-21T05:14:13.317Z,2.10
2017-12-21T05:16:41.875Z,2.20
2017-12-21T05:19:09.663Z,2.20
2017-12-21T05:21:38.271Z,2.10
2017-12-21T05:24:06.033Z,2.10
2017-12-21T05:26:33.781Z,2.20
2017-12-21T05:29:02.363Z,2.30
2017-12-21T05:31:30.114Z,2.30
2017-12-21T05:33:58.650Z,2.30
2017-12-21T05:36:26.477Z,2.30
2017-12-21T05:38:54.233Z,2.30
2017-12-21T05:41:22.053Z,2.20
2017-12-21T05:43:49.878Z,2.20
2017-12-21T05:46:17.632Z,2.10
2017-12-21T05:48:45.391Z,2.10
2017-12-21T05:51:13.253Z,2.00
2017-12-21T05:53:41.027Z,2.00
2017-12-21T05:56:08.813Z,2.10
2017-12-21T05:58:36.634Z,2.10
2017-12-21T06:01:04.423Z,2.20
2017-12-21T06:03:32.191Z,2.20
2017-12-21T06:06:00.012Z,2.20
2017-12-21T06:08:28.521Z,2.20
2017-12-21T06:10:56.279Z,2.20
2017-12-21T06:13:24.104Z,2.30
2017-12-21T06:15:52.632Z,2.40
2017-12-21T06:18:20.399Z,2.30
2017-12-21T06:20:48.236Z,2.30
2017-12-21T06:23:16.000Z,2.40
2017-12-21T06:25:43.766Z,2.40
2017-12-21T06:28:11.601Z,2.30
2017-12-21T06:30:39.360Z,2.30
2017-12-21T06:33:07.125Z,2.30
2017-12-21T06:35:34.941Z,2.30
2017-12-21T06:38:02.696Z,2.30
2017-12-21T06:40:30.443Z,2.40
2017-12-21T06:42:58.255Z,2.40
2017-12-21T06:45:26.782Z,2.30
2017-12-21T06:47:54.562Z,2.30
2017-12-21T06:50:26.115Z,2.40
2017-12-21T06:52:53.875Z,2.40
2017-12-21T06:55:21.644Z,2.40
2017-12-21T06:57:50.230Z,2.40
2017-12-21T07:00:17.999Z,2.40
2017-12-21T07:02:45.767Z,2.30
2017-12-21T07:05:14.353Z,2.30
2017-12-21T07:07:42.143Z,2.30
2017-12-21T07:10:09.903Z,2.50
2017-12-21T07:12:37.723Z,2.50
2017-12-21T07:15:05.486Z,2.50
2017-12-21T07:17:33.258Z,2.60
2017-12-21T07:20:01.083Z,2.50
2017-12-21T07:22:28.847Z,2.60
2017-12-21T07:24:56.630Z,2.50
2017-12-21T07:27:24.440Z,2.50
2017-12-21T07:29:52.203Z,2.50
2017-12-21T07:32:19.992Z,2.60
2017-12-21T07:34:47.839Z,2.60
2017-12-21T07:37:15.638Z,2.60
2017-12-21T07:39:44.167Z,2.60
2017-12-21T07:42:11.983Z,2.60
2017-12-21T07:44:39.744Z,2.60
2017-12-21T07:47:07.503Z,2.70
2017-12-21T07:49:35.318Z,2.70
2017-12-21T07:52:03.087Z,2.80
2017-12-21T07:54:30.870Z,2.80
2017-12-21T07:56:58.834Z,2.80
2017-12-21T07:59:26.599Z,2.80
2017-12-21T08:01:54.366Z,2.80
2017-12-21T08:04:22.174Z,2.80
2017-12-21T08:06:50.719Z,2.90
2017-12-21T08:09:18.491Z,2.90
2017-12-21T08:11:46.316Z,2.90
2017-12-21T08:14:14.078Z,2.90
2017-12-21T08:16:41.830Z,3.10
2017-12-21T08:19:09.646Z,3.10
2017-12-21T08:21:37.648Z,3.20
2017-12-21T08:24:05.551Z,3.30
2017-12-21T08:26:33.408Z,3.30
2017-12-21T08:29:01.198Z,3.20
2017-12-21T08:31:28.957Z,3.10
2017-12-21T08:33:56.766Z,3.20
2017-12-21T08:36:24.607Z,3.30
2017-12-21T08:38:53.138Z,3.40
2017-12-21T08:41:20.985Z,3.30
2017-12-21T08:43:48.751Z,3.40
2017-12-21T08:46:16.527Z,3.50
2017-12-21T08:48:44.357Z,3.50
2017-12-21T08:51:12.223Z,3.50
2017-12-21T08:53:40.036Z,3.50
2017-12-21T08:56:07.873Z,3.50
2017-12-21T08:58:35.639Z,3.50
2017-12-21T09:01:03.460Z,3.50
2017-12-21T09:03:32.046Z,3.60
2017-12-21T09:06:00.610Z,3.60
2017-12-21T09:08:28.436Z,3.60
2017-12-21T09:10:56.298Z,3.60
2017-12-21T09:13:24.075Z,3.70
2017-12-21T09:15:51.895Z,3.70
2017-12-21T09:18:19.756Z,3.80
2017-12-21T09:20:47.537Z,3.80
2017-12-21T09:23:15.299Z,3.90
2017-12-21T09:25:43.383Z,3.80
2017-12-21T09:28:11.169Z,3.80
2017-12-21T09:30:38.935Z,3.80
2017-12-21T09:33:06.793Z,3.80
2017-12-21T09:35:34.567Z,3.70
2017-12-21T09:38:03.152Z,3.90
2017-12-21T09:40:31.762Z,3.90
2017-12-21T09:42:59.547Z,3.90
2017-12-21T09:45:28.113Z,3.90
2017-12-21T09:47:55.959Z,3.90
2017-12-21T09:50:23.887Z,4.00
2017-12-21T09:52:51.670Z,4.00
2017-12-21T09:55:20.246Z,4.10
2017-12-21T09:57:48.024Z,4.00
2017-12-21T10:00:15.854Z,4.10
2017-12-21T10:02:43.811Z,4.10
2017-12-21T10:05:11.603Z,4.20
2017-12-21T10:07:40.287Z,4.20
2017-12-21T10:10:08.287Z,4.20
2017-12-21T10:12:36.075Z,4.20
2017-12-21T10:15:04.055Z,4.20
2017-12-21T10:17:32.751Z,4.20
2017-12-21T10:20:00.517Z,4.20
2017-12-21T10:22:28.275Z,4.20
2017-12-21T10:24:56.111Z,4.20
2017-12-21T10:27:23.886Z,4.20
2017-12-21T10:29:51.647Z,4.20
2017-12-21T10:32:19.477Z,4.20
2017-12-21T10:34:47.237Z,4.10
2017-12-21T10:37:15.012Z,4.10
2017-12-21T10:39:42.844Z,4.10
2017-12-21T10:42:10.602Z,4.10
2017-12-21T10:44:39.129Z,4.30
2017-12-21T10:47:06.948Z,4.20
2017-12-21T10:49:34.740Z,4.30
2017-12-21T10:52:02.496Z,4.40
2017-12-21T10:54:30.356Z,4.40
2017-12-21T10:56:58.111Z,4.40
2017-12-21T10:59:25.881Z,4.50
2017-12-21T11:01:53.698Z,4.50
2017-12-21T11:04:22.238Z,4.60
2017-12-21T11:06:50.021Z,4.50
2017-12-21T11:09:17.898Z,4.60
2017-12-21T11:11:46.661Z,4.70
2017-12-21T11:14:15.231Z,4.80
2017-12-21T11:16:43.130Z,4.70
2017-12-21T11:19:10.933Z,4.80
2017-12-21T11:21:38.722Z,4.80
2017-12-21T11:24:06.600Z,4.80
2017-12-21T11:26:34.499Z,4.90
2017-12-21T11:29:02.282Z,5.00
2017-12-21T11:31:30.111Z,5.00
2017-12-21T11:33:58.699Z,5.00
2017-12-21T11:36:27.341Z,5.00
2017-12-21T11:38:55.289Z,5.00
2017-12-21T11:41:23.096Z,5.10
2017-12-21T11:43:51.059Z,5.10
2017-12-21T11:46:18.922Z,5.10
2017-12-21T11:48:46.750Z,5.10
2017-12-21T11:51:14.567Z,5.10
2017-12-21T11:53:43.266Z,5.10
2017-12-21T11:56:11.644Z,5.10
2017-12-21T11:58:39.447Z,5.20
2017-12-21T12:01:07.285Z,5.10
2017-12-21T12:03:35.068Z,5.10
2017-12-21T12:06:02.956Z,5.20
2017-12-21T12:08:31.588Z,5.20
2017-12-21T12:11:00.130Z,5.20
2017-12-21T12:13:27.929Z,5.20
2017-12-21T12:15:55.818Z,5.20
2017-12-21T12:18:23.646Z,5.20
2017-12-21T12:20:51.482Z,5.20
2017-12-21T12:23:19.335Z,5.20
2017-12-21T12:25:47.100Z,5.20
2017-12-21T12:28:14.884Z,5.20
2017-12-21T12:30:43.466Z,5.20
2017-12-21T12:33:11.990Z,5.20
2017-12-21T12:35:39.811Z,5.20
2017-12-21T12:38:07.762Z,5.20
2017-12-21T12:40:35.522Z,5.20
2017-12-21T12:43:03.284Z,5.20
2017-12-21T12:45:31.149Z,5.20
2017-12-21T12:47:59.458Z,5.20
2017-12-21T12:50:27.153Z,5.20
2017-12-21T12:52:54.903Z,5.20
2017-12-21T12:55:22.605Z,5.20
2017-12-21T12:57:50.297Z,5.20
2017-12-21T13:00:18.809Z,5.20
2017-12-21T13:02:46.501Z,5.20
2017-12-21T13:05:14.209Z,5.20
2017-12-21T13:07:41.959Z,5.30
2017-12-21T13:10:10.413Z,5.40
2017-12-21T13:12:38.147Z,5.40
2017-12-21T13:15:06.000Z,5.40
2017-12-21T13:17:33.678Z,5.40
2017-12-21T13:20:01.393Z,5.40
2017-12-21T13:22:29.135Z,5.50
2017-12-21T13:24:57.589Z,5.60
2017-12-21T13:27:25.299Z,5.50
2017-12-21T13:29:53.056Z,5.60
2017-12-21T13:32:20.750Z,5.50
2017-12-21T13:34:48.437Z,5.60
2017-12-21T13:37:16.186Z,5.60
2017-12-21T13:39:43.880Z,5.50
2017-12-21T13:42:12.341Z,5.40
2017-12-21T13:44:40.857Z,5.50
2017-12-21T13:47:08.551Z,5.50
2017-12-21T13:49:36.253Z,5.50
2017-12-21T13:52:04.765Z,5.50
2017-12-21T13:54:32.483Z,5.40
2017-12-21T13:57:00.969Z,5.50
2017-12-21T13:59:29.497Z,5.50
2017-12-21T14:01:57.216Z,5.50
2017-12-21T14:04:24.902Z,5.50
2017-12-21T14:06:52.645Z,5.50
2017-12-21T14:09:21.092Z,5.50
2017-12-21T14:11:48.778Z,5.50
2017-12-21T14:14:17.281Z,5.60
2017-12-21T14:16:44.969Z,5.60
2017-12-21T14:19:12.654Z,5.50
2017-12-21T14:21:40.393Z,5.50
2017-12-21T14:24:08.074Z,5.50
2017-12-21T14:26:35.756Z,5.50
2017-12-21T14:29:03.488Z,5.50
2017-12-21T14:31:31.186Z,5.50
2017-12-21T14:33:58.881Z,5.60
2017-12-21T14:36:26.620Z,5.60
2017-12-21T14:38:54.310Z,5.60
2017-12-21T14:41:22.002Z,5.60
2017-12-21T14:43:49.784Z,5.60
2017-12-21T14:46:18.246Z,5.60
2017-12-21T14:48:46.693Z,5.60
2017-12-21T14:51:14.432Z,5.50
2017-12-21T14:53:42.125Z,5.60
2017-12-21T14:56:09.806Z,5.60
2017-12-21T14:58:38.311Z,5.60
2017-12-21T15:01:05.997Z,5.60
2017-12-21T15:03:33.700Z,5.60
2017-12-21T15:06:01.453Z,5.70
2017-12-21T15:08:29.283Z,5.70
2017-12-21T15:10:57.061Z,5.70
2017-12-21T15:13:24.995Z,5.60
2017-12-21T15:15:52.688Z,5.70
2017-12-21T15:18:20.369Z,5.70
2017-12-21T15:20:48.272Z,5.70
2017-12-21T15:23:15.977Z,5.70
2017-12-21T15:25:43.664Z,5.70
2017-12-21T15:28:12.169Z,5.60
2017-12-21T15:30:39.852Z,5.60
2017-12-21T15:33:07.539Z,5.70
2017-12-21T15:35:35.445Z,5.70
2017-12-21T15:38:03.169Z,5.70
2017-12-21T15:40:30.902Z,5.70
2017-12-21T15:42:58.657Z,5.80
2017-12-21T15:45:26.341Z,5.80
2017-12-21T15:47:54.054Z,5.80
2017-12-21T15:50:21.883Z,5.80
2017-12-21T15:52:50.350Z,5.80
2017-12-21T15:55:18.036Z,5.80
2017-12-21T15:57:46.593Z,5.80
2017-12-21T16:00:14.441Z,5.70
2017-12-21T16:02:42.242Z,5.80
2017-12-21T16:05:10.898Z,5.80
2017-12-21T16:07:38.654Z,5.70
2017-12-21T16:10:06.392Z,5.80
2017-12-21T16:12:34.224Z,5.90
2017-12-21T16:15:02.032Z,5.90
2017-12-21T16:17:29.738Z,5.90
2017-12-21T16:19:57.514Z,5.90
2017-12-21T16:22:25.193Z,5.90
2017-12-21T16:24:53.094Z,5.90
2017-12-21T16:27:20.862Z,5.90
2017-12-21T16:29:49.006Z,5.90
2017-12-21T16:32:16.753Z,5.90
2017-12-21T16:34:44.563Z,5.90
2017-12-21T16:37:12.344Z,5.90
2017-12-21T16:39:40.914Z,5.90
2017-12-21T16:42:09.451Z,6.00
2017-12-21T16:44:37.320Z,5.90
2017-12-21T16:47:05.014Z,6.00
2017-12-21T16:49:33.338Z,6.00
2017-12-21T16:52:01.034Z,6.00
2017-12-21T16:54:29.045Z,5.90
2017-12-21T16:56:57.016Z,5.90
2017-12-21T16:59:24.708Z,5.90
2017-12-21T17:01:52.453Z,5.80
2017-12-21T17:04:20.366Z,5.90
2017-12-21T17:06:48.153Z,5.90
2017-12-21T17:09:17.542Z,6.00
2017-12-21T17:11:46.218Z,6.00
2017-12-21T17:14:14.697Z,6.10
2017-12-21T17:16:43.151Z,6.00
2017-12-21T17:19:10.922Z,6.10
2017-12-21T17:21:38.614Z,6.10
2017-12-21T17:24:06.321Z,6.00
2017-12-21T17:26:34.099Z,6.00
2017-12-21T17:29:01.797Z,6.00
2017-12-21T17:31:29.476Z,6.00
2017-12-21T17:33:57.227Z,5.90
2017-12-21T17:36:24.986Z,5.80
2017-12-21T17:38:52.693Z,5.80
2017-12-21T17:41:22.814Z,5.70
2017-12-21T17:43:50.982Z,5.70
2017-12-21T17:46:19.570Z,5.60
2017-12-21T17:48:47.403Z,5.60
2017-12-21T17:51:15.100Z,5.60
2017-12-21T17:53:42.800Z,5.60
2017-12-21T17:56:11.705Z,5.60
2017-12-21T17:58:39.395Z,5.60
2017-12-21T18:01:07.878Z,5.50
2017-12-21T18:03:35.626Z,5.40
2017-12-21T18:06:03.326Z,5.40
2017-12-21T18:08:31.068Z,5.30
2017-12-21T18:10:58.913Z,5.30
2017-12-21T18:13:26.653Z,5.30
2017-12-21T18:15:54.867Z,5.30
2017-12-21T18:18:22.619Z,5.40
2017-12-21T18:20:50.309Z,5.50
2017-12-21T18:23:18.770Z,5.60
2017-12-21T18:25:46.534Z,5.60
2017-12-21T18:28:15.023Z,5.60
2017-12-21T18:30:43.481Z,5.60
2017-12-21T18:33:11.218Z,5.60
2017-12-21T18:35:38.910Z,5.70
2017-12-21T18:38:06.601Z,5.60
2017-12-21T18:40:34.346Z,5.60
2017-12-21T18:43:02.810Z,5.70
2017-12-21T18:45:30.513Z,5.70
2017-12-21T18:47:58.294Z,5.70
2017-12-21T18:50:26.048Z,5.70
2017-12-21T18:52:53.729Z,5.70
2017-12-21T18:55:21.470Z,5.80
2017-12-21T18:57:49.163Z,5.80
2017-12-21T19:00:16.877Z,5.80
2017-12-21T19:02:44.875Z,5.80
2017-12-21T19:05:12.645Z,5.70
2017-12-21T19:07:40.340Z,5.70
2017-12-21T19:10:08.857Z,5.60
2017-12-21T19:12:36.583Z,5.60
2017-12-21T19:15:05.072Z,5.60
2017-12-21T19:17:32.826Z,5.60
2017-12-21T19:20:01.277Z,5.60
2017-12-21T19:22:28.969Z,5.60
2017-12-21T19:24:57.497Z,5.50
2017-12-21T19:27:25.204Z,5.50
2017-12-21T19:29:52.894Z,5.40
2017-12-21T19:32:20.661Z,5.30
2017-12-21T19:34:48.365Z,5.20
2017-12-21T19:37:16.073Z,5.20
2017-12-21T19:39:43.822Z,5.20
2017-12-21T19:42:11.521Z,5.20
2017-12-21T19:44:39.211Z,5.20
2017-12-21T19:47:07.736Z,5.30
2017-12-21T19:49:35.450Z,5.40
2017-12-21T19:52:03.133Z,5.40
2017-12-21T19:54:30.903Z,5.50
2017-12-21T19:56:59.495Z,5.40
2017-12-21T19:59:27.190Z,5.40
2017-12-21T20:01:54.942Z,5.40
2017-12-21T20:04:22.641Z,5.40
2017-12-21T20:06:51.111Z,5.50
2017-12-21T20:09:18.874Z,5.50
2017-12-21T20:11:46.579Z,5.60
2017-12-21T20:14:14.282Z,5.60
2017-12-21T20:16:42.042Z,5.60
2017-12-21T20:19:09.736Z,5.60
2017-12-21T20:21:38.238Z,5.60
2017-12-21T20:24:05.989Z,5.60
2017-12-21T20:26:33.726Z,5.60
2017-12-21T20:29:02.241Z,5.70
2017-12-21T20:31:29.986Z,5.70
2017-12-21T20:33:57.683Z,5.80
2017-12-21T20:36:25.374Z,5.80
2017-12-21T20:38:53.138Z,5.80
2017-12-21T20:41:20.854Z,5.80
2017-12-21T20:43:48.585Z,5.80
2017-12-21T20:46:16.340Z,5.90
2017-12-21T20:48:44.806Z,5.80
2017-12-21T20:51:12.494Z,5.80
2017-12-21T20:53:40.241Z,5.80
2017-12-21T20:56:08.694Z,5.70
2017-12-21T20:58:36.381Z,5.70
2017-12-21T21:01:04.909Z,5.80
2017-12-21T21:03:32.626Z,5.80
2017-12-21T21:06:00.329Z,5.90
2017-12-21T21:08:28.185Z,5.90
2017-12-21T21:10:55.889Z,5.70
2017-12-21T21:13:24.370Z,5.70
2017-12-21T21:15:52.984Z,5.70
2017-12-21T21:18:20.702Z,5.60
2017-12-21T21:20:48.425Z,5.70
2017-12-21T21:23:16.169Z,5.70
2017-12-21T21:25:44.067Z,5.70
2017-12-21T21:28:11.832Z,5.70
2017-12-21T21:30:39.610Z,5.70
2017-12-21T21:33:07.307Z,5.70
2017-12-21T21:35:35.030Z,5.70
2017-12-21T21:38:02.794Z,5.70
2017-12-21T21:40:30.525Z,5.70
2017-12-21T21:42:58.316Z,5.70
2017-12-21T21:45:26.620Z,5.70
2017-12-21T21:47:54.326Z,5.70
2017-12-21T21:50:22.012Z,5.60
2017-12-21T21:52:49.767Z,5.50
2017-12-21T21:55:17.489Z,5.50
2017-12-21T21:57:45.243Z,5.60
2017-12-21T22:00:13.021Z,5.50
2017-12-21T22:02:40.770Z,5.50
2017-12-21T22:05:08.463Z,5.50
2017-12-21T22:07:36.230Z,5.50
2017-12-21T22:10:04.966Z,5.50
2017-12-21T22:12:32.708Z,5.50
2017-12-21T22:15:01.254Z,5.50
2017-12-21T22:17:29.603Z,5.50
2017-12-21T22:19:57.506Z,5.40
2017-12-21T22:22:25.282Z,5.40
2017-12-21T22:24:53.790Z,5.40
2017-12-21T22:27:21.502Z,5.40
2017-12-21T22:29:49.349Z,5.50
2017-12-21T22:32:17.038Z,5.40
2017-12-21T22:34:44.743Z,5.40
2017-12-21T22:37:12.517Z,5.50
2017-12-21T22:39:40.385Z,5.50
2017-12-21T22:42:08.114Z,5.50
2017-12-21T22:44:35.897Z,5.50
2017-12-21T22:47:03.682Z,5.40
2017-12-21T22:49:31.431Z,5.50
2017-12-21T22:51:59.212Z,5.50
2017-12-21T22:54:26.925Z,5.50
2017-12-21T22:56:54.674Z,5.50
2017-12-21T22:59:23.217Z,5.40
2017-12-21T23:01:50.930Z,5.40
2017-12-21T23:04:18.693Z,5.50
2017-12-21T23:06:46.466Z,5.50
2017-12-21T23:09:14.166Z,5.50
2017-12-21T23:11:41.860Z,5.50
2017-12-21T23:14:09.616Z,5.50
2017-12-21T23:16:38.129Z,5.40
2017-12-21T23:19:05.850Z,5.40
2017-12-21T23:21:34.389Z,5.50
2017-12-21T23:24:02.102Z,5.40
2017-12-21T23:26:29.862Z,5.40
2017-12-21T23:28:58.394Z,5.40
2017-12-21T23:31:26.086Z,5.40
2017-12-21T23:33:54.569Z,5.40
2017-12-21T23:36:23.085Z,5.40
2017-12-21T23:38:50.778Z,5.30
2017-12-21T23:41:18.485Z,5.30
2017-12-21T23:43:46.239Z,5.30
2017-12-21T23:46:14.701Z,5.30
2017-12-21T23:48:43.170Z,5.30
2017-12-21T23:51:10.953Z,5.30
2017-12-21T23:53:39.447Z,5.30
2017-12-21T23:56:07.933Z,5.30
2017-12-21T23:58:35.677Z,5.30
